createdAt,value
2023-04-29T00:00:55.249Z,44.34
2023-04-29T00:03:23.317Z,43.95
2023-04-29T00:05:51.507Z,44.01
2023-04-29T00:08:19.552Z,43.58
2023-04-29T00:10:48.687Z,44.02
2023-04-29T00:13:16.555Z,44.09
2023-04-29T00:15:44.896Z,43.97
2023-04-29T00:18:14.067Z,43.97
2023-04-29T00:20:43.369Z,44.18
2023-04-29T00:23:11.591Z,44.06
2023-04-29T00:25:39.324Z,44.21
2023-04-29T00:28:08.568Z,44.18
2023-04-29T00:30:36.511Z,43.80
2023-04-29T00:33:04.416Z,44.54
2023-04-29T00:35:32.338Z,43.90
2023-04-29T00:38:00.196Z,44.14
2023-04-29T00:40:29.134Z,44.51
2023-04-29T00:42:57.145Z,44.73
2023-04-29T00:45:27.602Z,44.88
2023-04-29T00:47:55.450Z,44.87
2023-04-29T00:50:23.629Z,44.38
2023-04-29T00:52:52.934Z,45.13
2023-04-29T00:55:21.752Z,44.78
2023-04-29T00:57:52.216Z,45.42
2023-04-29T01:00:20.392Z,45.16
2023-04-29T01:02:51.027Z,44.78
2023-04-29T01:05:19.412Z,45.25
2023-04-29T01:07:57.624Z,45.17
2023-04-29T01:10:29.832Z,44.98
2023-04-29T01:13:07.845Z,45.01
2023-04-29T01:15:44.235Z,45.04
2023-04-29T01:18:19.812Z,45.27
2023-04-29T01:20:48.826Z,44.58
2023-04-29T01:23:16.681Z,44.81
2023-04-29T01:25:46.320Z,44.85
2023-04-29T01:28:28.161Z,45.44
2023-04-29T01:31:01.961Z,45.33
2023-04-29T01:33:41.433Z,45.71
2023-04-29T01:36:18.152Z,44.84
2023-04-29T01:38:52.551Z,45.54
2023-04-29T01:41:32.200Z,45.21
2023-04-29T01:44:14.744Z,45.52
2023-04-29T01:46:44.226Z,45.18
2023-04-29T01:49:12.066Z,45.61
2023-04-29T01:51:39.981Z,45.00
2023-04-29T01:54:08.001Z,44.98
2023-04-29T01:56:37.219Z,45.50
2023-04-29T01:59:21.984Z,45.68
2023-04-29T02:02:08.742Z,45.00
2023-04-29T02:04:40.223Z,45.60
2023-04-29T02:07:08.294Z,45.58
2023-04-29T02:09:36.389Z,45.45
2023-04-29T02:12:11.487Z,45.09
2023-04-29T02:14:39.506Z,45.07
2023-04-29T02:17:07.516Z,45.26
2023-04-29T02:19:35.591Z,45.16
2023-04-29T02:22:03.488Z,45.06
2023-04-29T02:24:31.502Z,45.11
2023-04-29T02:27:00.247Z,44.85
2023-04-29T02:29:31.122Z,45.03
2023-04-29T02:31:59.841Z,44.92
2023-04-29T02:34:27.936Z,45.28
2023-04-29T02:36:55.722Z,45.39
2023-04-29T02:39:23.507Z,45.10
2023-04-29T02:44:44.268Z,44.89
2023-04-29T02:47:12.943Z,44.59
2023-04-29T02:49:41.139Z,44.74
2023-04-29T02:52:09.106Z,45.01
2023-04-29T02:54:37.972Z,45.13
2023-04-29T02:57:06.025Z,44.81
2023-04-29T02:59:33.863Z,45.08
2023-04-29T03:02:03.735Z,44.53
2023-04-29T03:04:31.683Z,44.53
2023-04-29T03:06:59.539Z,45.12
2023-04-29T03:09:28.344Z,45.06
2023-04-29T03:11:56.476Z,44.91
2023-04-29T03:14:24.966Z,45.02
2023-04-29T03:20:33.841Z,45.38
2023-04-29T03:23:40.655Z,45.19
2023-04-29T03:26:11.630Z,44.97
2023-04-29T03:28:52.916Z,45.06
2023-04-29T03:31:23.387Z,45.63
2023-04-29T03:33:53.501Z,45.40
2023-04-29T03:36:22.456Z,45.61
2023-04-29T03:39:04.213Z,45.20
2023-04-29T03:41:32.411Z,45.77
2023-04-29T03:44:01.098Z,45.58
2023-04-29T03:46:30.727Z,45.73
2023-04-29T03:49:02.241Z,45.40
2023-04-29T03:51:30.824Z,45.63
2023-04-29T03:54:13.383Z,45.62
2023-04-29T03:56:41.913Z,45.33
2023-04-29T03:59:10.055Z,45.58
2023-04-29T04:01:39.606Z,45.94
2023-04-29T04:04:08.532Z,45.36
2023-04-29T04:06:39.802Z,45.52
2023-04-29T04:09:08.160Z,45.45
2023-04-29T04:11:37.630Z,45.72
2023-04-29T04:14:06.573Z,45.94
2023-04-29T04:16:34.654Z,45.71
2023-04-29T04:19:04.448Z,45.70
2023-04-29T04:21:36.897Z,45.83
2023-04-29T04:24:09.108Z,46.04
2023-04-29T04:26:41.548Z,46.07
2023-04-29T04:29:17.217Z,45.89
2023-04-29T04:31:55.921Z,45.97
2023-04-29T04:34:24.982Z,46.04
2023-04-29T04:36:53.947Z,46.03
2023-04-29T04:39:23.528Z,46.17
2023-04-29T04:41:53.846Z,46.50
2023-04-29T04:44:22.166Z,45.90
2023-04-29T04:47:11.665Z,46.20
2023-04-29T04:49:53.353Z,45.98
2023-04-29T04:52:22.690Z,46.43
2023-04-29T04:55:01.196Z,45.94
2023-04-29T04:57:32.849Z,46.01
2023-04-29T05:00:04.063Z,46.22
2023-04-29T05:02:32.828Z,45.72
2023-04-29T05:05:00.935Z,45.92
2023-04-29T05:07:32.029Z,46.09
2023-04-29T05:10:08.470Z,46.35
2023-04-29T05:12:43.882Z,45.88
2023-04-29T05:15:12.691Z,46.11
2023-04-29T05:17:40.916Z,46.33
2023-04-29T05:20:10.229Z,45.81
2023-04-29T05:22:38.136Z,46.35
2023-04-29T05:25:06.681Z,46.06
2023-04-29T05:27:36.445Z,45.89
2023-04-29T05:30:09.794Z,46.19
2023-04-29T05:32:37.800Z,46.43
2023-04-29T05:35:08.486Z,46.30
2023-04-29T05:37:36.780Z,46.21
2023-04-29T05:40:14.121Z,46.42
2023-04-29T05:42:42.688Z,46.52
2023-04-29T05:45:16.992Z,46.32
2023-04-29T05:47:48.066Z,45.95
2023-04-29T05:50:16.484Z,46.65
2023-04-29T05:52:44.559Z,46.27
2023-04-29T05:55:14.188Z,46.08
2023-04-29T05:57:42.213Z,46.22
2023-04-29T06:00:13.375Z,46.43
2023-04-29T06:03:05.864Z,46.53
2023-04-29T06:05:55.060Z,46.65
2023-04-29T06:08:38.742Z,46.61
2023-04-29T06:11:16.261Z,46.42
2023-04-29T06:13:44.934Z,46.32
2023-04-29T06:16:14.651Z,46.68
2023-04-29T06:18:42.910Z,46.80
2023-04-29T06:21:10.826Z,46.25
2023-04-29T06:23:38.710Z,46.32
2023-04-29T06:26:13.358Z,46.13
2023-04-29T06:28:41.298Z,46.26
2023-04-29T06:31:11.599Z,46.48
2023-04-29T06:33:41.999Z,46.63
2023-04-29T06:36:10.352Z,46.42
2023-04-29T06:38:58.556Z,46.32
2023-04-29T06:41:52.707Z,46.09
2023-04-29T06:44:34.554Z,45.94
2023-04-29T06:47:29.550Z,45.98
2023-04-29T06:50:13.414Z,46.15
2023-04-29T06:52:41.356Z,46.33
2023-04-29T06:55:11.407Z,46.52
2023-04-29T06:57:42.807Z,46.09
2023-04-29T07:00:11.599Z,45.97
2023-04-29T07:02:40.175Z,46.31
2023-04-29T07:05:09.427Z,46.07
2023-04-29T07:07:38.995Z,45.63
2023-04-29T07:10:07.620Z,45.80
2023-04-29T07:12:35.679Z,45.65
2023-04-29T07:15:03.669Z,46.06
2023-04-29T07:17:32.016Z,46.05
2023-04-29T07:20:00.289Z,46.11
2023-04-29T07:22:28.442Z,46.20
2023-04-29T07:24:57.831Z,45.97
2023-04-29T07:27:26.267Z,46.17
2023-04-29T07:29:54.152Z,46.36
2023-04-29T07:32:25.792Z,46.28
2023-04-29T07:35:14.437Z,45.94
2023-04-29T07:37:44.103Z,45.96
2023-04-29T07:40:14.109Z,45.74
2023-04-29T07:42:42.270Z,46.04
2023-04-29T07:45:11.646Z,45.92
2023-04-29T07:47:39.630Z,45.95
2023-04-29T07:50:08.341Z,45.71
2023-04-29T07:52:36.523Z,45.91
2023-04-29T07:55:04.782Z,45.59
2023-04-29T07:57:34.201Z,45.88
2023-04-29T08:00:04.217Z,46.07
2023-04-29T08:02:43.054Z,45.74
2023-04-29T08:05:14.634Z,45.50
2023-04-29T08:07:48.315Z,45.74
2023-04-29T08:10:16.763Z,46.04
2023-04-29T08:12:48.531Z,46.03
2023-04-29T08:15:16.690Z,45.55
2023-04-29T08:17:44.450Z,46.05
2023-04-29T08:20:13.790Z,45.59
2023-04-29T08:22:42.507Z,45.91
2023-04-29T08:25:11.258Z,46.03
2023-04-29T08:27:39.403Z,45.55
2023-04-29T08:30:10.379Z,45.55
2023-04-29T08:32:38.564Z,45.95
2023-04-29T08:35:07.276Z,45.62
2023-04-29T08:37:35.191Z,45.61
2023-04-29T08:40:03.592Z,45.85
2023-04-29T08:42:34.906Z,45.95
2023-04-29T08:45:17.359Z,46.03
2023-04-29T08:47:45.795Z,45.74
2023-04-29T08:50:13.634Z,46.08
2023-04-29T08:52:41.593Z,45.88
2023-04-29T08:55:10.230Z,45.44
2023-04-29T08:57:40.304Z,45.51
2023-04-29T09:00:11.434Z,45.85
2023-04-29T09:02:46.590Z,45.50
2023-04-29T09:05:14.648Z,45.83
2023-04-29T09:07:43.410Z,46.06
2023-04-29T09:10:11.889Z,45.45
2023-04-29T09:12:39.761Z,45.80
2023-04-29T09:15:08.662Z,45.62
2023-04-29T09:17:42.580Z,46.13
2023-04-29T09:20:32.261Z,46.38
2023-04-29T09:23:02.606Z,46.11
2023-04-29T09:25:31.454Z,45.80
2023-04-29T09:27:59.345Z,45.75
2023-04-29T09:30:27.434Z,46.31
2023-04-29T09:33:10.499Z,46.22
2023-04-29T09:35:41.508Z,45.61
2023-04-29T09:38:11.851Z,45.71
2023-04-29T09:40:54.270Z,45.77
2023-04-29T09:43:26.310Z,46.15
2023-04-29T09:45:54.548Z,46.17
2023-04-29T09:48:32.014Z,46.24
2023-04-29T09:51:04.016Z,45.99
2023-04-29T09:53:32.737Z,45.86
2023-04-29T09:56:01.914Z,46.10
2023-04-29T09:58:31.536Z,45.87
2023-04-29T10:01:01.639Z,46.01
2023-04-29T10:03:34.454Z,46.13
2023-04-29T10:06:04.120Z,46.00
2023-04-29T10:08:32.555Z,46.15
2023-04-29T10:11:02.054Z,45.63
2023-04-29T10:13:31.226Z,46.29
2023-04-29T10:16:07.593Z,46.39
2023-04-29T10:18:42.226Z,46.03
2023-04-29T10:21:10.538Z,46.39
2023-04-29T10:23:38.762Z,46.17
2023-04-29T10:26:07.377Z,46.68
2023-04-29T10:28:38.580Z,46.33
2023-04-29T10:31:08.847Z,46.17
2023-04-29T10:33:41.024Z,46.73
2023-04-29T10:36:09.320Z,46.89
